Time;durP1;ratioP1;P1;durP2;ratioP2;P2;SDS_P1;SDS_P2;PMS_P1;PMS_P2;Temp;Humidity;BMP_temperature;BMP_pressure;BME280_temperature;BME280_humidity;BME280_pressure;Samples;Min_cycle;Max_cycle;Signal;HPM_P1;HPM_P2
2022/03/27 00:02:08;;;;;;;42.77;23.40;;;3.40;99.90;;;;;;4991802;28;20417;-76
2022/03/27 00:04:34;;;;;;;47.23;24.53;;;3.40;99.90;;;;;;4991381;28;20072;-76
2022/03/27 00:07:00;;;;;;;49.43;24.17;;;3.40;99.90;;;;;;4991948;28;20489;-76
2022/03/27 00:09:25;;;;;;;45.30;23.33;;;3.30;99.90;;;;;;5004062;28;20076;-76
2022/03/27 00:11:51;;;;;;;43.33;23.33;;;3.30;99.90;;;;;;5011248;28;20092;-76
2022/03/27 00:14:16;;;;;;;43.23;24.13;;;3.30;99.90;;;;;;5010928;28;20026;-77
2022/03/27 00:16:42;;;;;;;41.53;23.43;;;3.20;99.90;;;;;;4993338;28;20030;-76
2022/03/27 00:19:08;;;;;;;48.93;23.90;;;3.10;99.90;;;;;;4993296;28;20038;-76
2022/03/27 00:21:33;;;;;;;50.50;24.30;;;3.00;99.90;;;;;;4993243;28;20026;-76
2022/03/27 00:23:59;;;;;;;43.90;24.00;;;3.00;99.90;;;;;;4992943;28;20117;-76
2022/03/27 00:26:25;;;;;;;44.50;25.17;;;3.10;99.90;;;;;;5010841;28;20459;-76
2022/03/27 00:28:51;;;;;;;47.43;25.00;;;3.00;99.90;;;;;;5011039;28;20490;-76
2022/03/27 00:31:18;;;;;;;47.40;24.47;;;2.90;99.90;;;;;;5010498;28;20076;-76
2022/03/27 00:33:44;;;;;;;45.83;25.00;;;2.90;99.90;;;;;;5010498;28;20371;-76
2022/03/27 00:36:13;;;;;;;48.43;26.47;;;2.90;99.90;;;;;;5010673;28;20018;-76
2022/03/27 00:38:40;;;;;;;47.47;24.93;;;2.80;99.90;;;;;;5010904;28;20132;-75
2022/03/27 00:41:05;;;;;;;51.77;27.00;;;2.80;99.90;;;;;;4992966;28;20387;-76
2022/03/27 00:43:32;;;;;;;52.53;27.37;;;2.80;99.90;;;;;;5010417;28;20029;-76
2022/03/27 00:45:57;;;;;;;47.73;26.07;;;2.80;99.90;;;;;;5010651;28;20022;-77
2022/03/27 00:48:23;;;;;;;47.87;24.60;;;2.70;99.90;;;;;;5010994;28;20030;-76
2022/03/27 00:50:51;;;;;;;50.03;25.70;;;2.80;99.90;;;;;;4993169;28;20025;-76
2022/03/27 00:53:18;;;;;;;45.93;24.53;;;2.80;99.90;;;;;;5010079;28;20819;-76
2022/03/27 00:55:48;;;;;;;47.20;26.47;;;2.80;99.90;;;;;;5010578;28;20026;-76
2022/03/27 00:58:14;;;;;;;44.23;24.80;;;2.70;99.90;;;;;;4995036;28;20056;-76
2022/03/27 01:00:46;;;;;;;43.67;24.67;;;2.70;99.90;;;;;;4989237;28;20117;-76
2022/03/27 01:03:14;;;;;;;48.53;24.83;;;2.70;99.90;;;;;;4989269;28;20054;-76
2022/03/27 01:05:44;;;;;;;46.00;24.27;;;2.70;99.90;;;;;;4990616;28;20064;-76
2022/03/27 01:08:12;;;;;;;47.97;26.20;;;2.70;99.90;;;;;;4997062;28;20026;-76
2022/03/27 01:10:39;;;;;;;57.80;25.67;;;2.60;99.90;;;;;;4992345;28;20117;-76
2022/03/27 01:13:09;;;;;;;47.63;26.27;;;2.60;99.90;;;;;;5010278;28;20490;-77
2022/03/27 01:15:40;;;;;;;48.47;24.50;;;2.60;99.90;;;;;;5010270;28;20399;-76
2022/03/27 01:18:09;;;;;;;46.57;26.23;;;2.50;99.90;;;;;;4992455;28;20036;-76
2022/03/27 01:20:38;;;;;;;51.10;25.80;;;2.50;99.90;;;;;;5010290;28;20129;-76
2022/03/27 01:23:09;;;;;;;52.50;27.63;;;2.50;99.90;;;;;;4992391;28;20029;-76
2022/03/27 01:25:35;;;;;;;51.83;25.80;;;2.40;99.90;;;;;;4992506;28;20034;-76
2022/03/27 01:28:01;;;;;;;48.17;26.13;;;2.40;99.90;;;;;;5010141;28;20036;-77
2022/03/27 01:30:27;;;;;;;49.10;25.43;;;2.40;99.90;;;;;;5010081;28;20438;-76
2022/03/27 01:32:53;;;;;;;48.10;26.33;;;2.40;99.90;;;;;;5009967;28;20037;-75
2022/03/27 01:35:19;;;;;;;48.10;26.90;;;2.30;99.90;;;;;;5010242;28;20017;-77
2022/03/27 01:37:48;;;;;;;53.50;27.83;;;2.30;99.90;;;;;;5010326;28;20080;-76
2022/03/27 01:40:15;;;;;;;50.73;26.70;;;2.30;99.90;;;;;;4992225;28;20026;-76
2022/03/27 01:42:40;;;;;;;52.57;26.27;;;2.20;99.90;;;;;;5009968;28;20408;-76
2022/03/27 01:45:07;;;;;;;47.07;26.93;;;2.20;99.90;;;;;;5010021;28;20108;-76
2022/03/27 01:47:32;;;;;;;52.53;27.57;;;2.20;99.90;;;;;;5010460;28;20041;-76
2022/03/27 01:50:01;;;;;;;51.57;26.73;;;2.20;99.90;;;;;;5009840;28;20065;-76
2022/03/27 01:52:27;;;;;;;54.43;26.77;;;2.10;99.90;;;;;;5009936;28;20442;-76
2022/03/27 01:54:52;;;;;;;45.90;25.80;;;2.10;99.90;;;;;;5009717;28;20048;-76
2022/03/27 01:57:18;;;;;;;48.93;27.13;;;2.10;99.90;;;;;;4990114;28;20022;-77
2022/03/27 01:59:43;;;;;;;49.03;25.87;;;2.00;99.90;;;;;;5000213;28;20034;-77
2022/03/27 02:02:09;;;;;;;46.20;26.33;;;2.00;99.90;;;;;;5009857;28;20037;-76
2022/03/27 02:04:35;;;;;;;42.80;24.23;;;2.00;99.90;;;;;;5009380;28;20053;-76
2022/03/27 02:07:01;;;;;;;46.30;26.47;;;1.90;99.90;;;;;;5009941;28;20026;-77
2022/03/27 02:09:27;;;;;;;48.47;26.07;;;1.80;99.90;;;;;;5009776;28;20028;-76
2022/03/27 02:11:52;;;;;;;45.17;25.00;;;1.80;99.90;;;;;;4992094;28;20080;-76
2022/03/27 02:14:18;;;;;;;44.53;24.73;;;1.80;99.90;;;;;;5009390;28;20037;-77
2022/03/27 02:16:44;;;;;;;51.37;24.37;;;1.70;99.90;;;;;;4999432;28;20054;-77
2022/03/27 02:19:11;;;;;;;47.20;24.67;;;1.70;99.90;;;;;;4991786;28;20041;-76
2022/03/27 02:21:38;;;;;;;47.33;24.50;;;1.60;99.90;;;;;;4993607;28;20061;-76
2022/03/27 02:24:04;;;;;;;44.33;24.70;;;1.70;99.90;;;;;;5001947;28;20037;-76
2022/03/27 02:26:31;;;;;;;51.87;26.37;;;1.60;99.90;;;;;;4995446;28;20084;-76
2022/03/27 02:28:56;;;;;;;48.00;25.07;;;1.50;99.90;;;;;;5013197;28;20040;-76
2022/03/27 02:31:22;;;;;;;43.13;24.03;;;1.50;99.90;;;;;;5013345;28;20453;-76
2022/03/27 02:33:48;;;;;;;45.50;25.40;;;1.50;99.90;;;;;;4995180;28;20034;-76
2022/03/27 02:36:14;;;;;;;44.27;26.33;;;1.50;99.90;;;;;;5012613;28;20025;-76
2022/03/27 02:38:40;;;;;;;46.30;24.87;;;1.40;99.90;;;;;;5012946;28;20404;-76
2022/03/27 02:41:08;;;;;;;51.67;26.77;;;1.40;99.90;;;;;;5013027;28;20065;-76
2022/03/27 02:43:38;;;;;;;49.50;26.37;;;1.40;99.90;;;;;;5012233;28;20030;-76
2022/03/27 02:46:05;;;;;;;51.87;26.87;;;1.30;99.90;;;;;;5012612;28;20036;-76
2022/03/27 02:48:31;;;;;;;53.73;26.30;;;1.30;99.90;;;;;;4995022;28;20033;-76
2022/03/27 02:50:56;;;;;;;55.37;26.90;;;1.30;99.90;;;;;;5012683;28;20109;-76
2022/03/27 02:53:22;;;;;;;57.13;26.73;;;1.30;99.90;;;;;;4994678;28;20038;-76
2022/03/27 02:55:48;;;;;;;54.63;27.83;;;1.20;99.90;;;;;;5012565;28;20103;-76
2022/03/27 02:58:14;;;;;;;52.60;27.33;;;1.20;99.90;;;;;;5006533;28;20120;-76
2022/03/27 03:00:41;;;;;;;54.20;27.43;;;1.10;99.90;;;;;;4999012;28;20023;-76
2022/03/27 03:03:08;;;;;;;52.33;26.80;;;1.10;99.90;;;;;;5005833;28;20061;-76
2022/03/27 03:05:34;;;;;;;50.67;27.23;;;1.10;99.90;;;;;;4994818;28;20037;-77
2022/03/27 03:08:02;;;;;;;51.93;26.53;;;1.10;99.90;;;;;;5012223;28;20319;-76
2022/03/27 03:10:29;;;;;;;53.43;25.77;;;1.10;99.90;;;;;;4994916;28;20129;-76
2022/03/27 03:12:55;;;;;;;48.87;26.23;;;1.10;99.90;;;;;;5012055;28;20033;-76
2022/03/27 03:15:22;;;;;;;52.93;25.77;;;1.10;99.90;;;;;;5012070;28;20026;-76
2022/03/27 03:17:47;;;;;;;50.57;25.07;;;1.10;99.90;;;;;;5012219;28;20022;-76
2022/03/27 03:20:13;;;;;;;49.47;26.47;;;1.10;99.90;;;;;;5012157;28;20034;-77
2022/03/27 03:22:40;;;;;;;45.63;24.77;;;1.10;99.90;;;;;;5012119;28;20391;-77
2022/03/27 03:25:06;;;;;;;49.23;24.93;;;1.10;99.90;;;;;;5011813;28;20343;-76
2022/03/27 03:27:32;;;;;;;48.20;25.10;;;1.00;99.90;;;;;;4994357;28;20026;-77
2022/03/27 03:29:58;;;;;;;47.73;24.80;;;1.00;99.90;;;;;;4993850;28;20118;-76
2022/03/27 03:32:23;;;;;;;46.80;25.13;;;1.00;99.90;;;;;;4994225;28;20476;-76
2022/03/27 03:34:49;;;;;;;45.43;24.33;;;0.90;99.90;;;;;;4993844;28;20034;-76
2022/03/27 03:37:15;;;;;;;50.10;26.80;;;1.00;99.90;;;;;;5011746;28;20041;-76
2022/03/27 03:39:40;;;;;;;49.57;24.37;;;0.90;99.90;;;;;;5011664;28;20041;-76
2022/03/27 03:42:06;;;;;;;50.90;26.07;;;0.90;99.90;;;;;;4994055;28;20065;-76
2022/03/27 03:44:32;;;;;;;46.27;24.17;;;0.80;99.90;;;;;;4993810;28;20072;-76
2022/03/27 03:46:57;;;;;;;51.70;23.57;;;0.80;99.90;;;;;;5011618;28;20034;-76
2022/03/27 03:49:24;;;;;;;45.43;24.70;;;0.80;99.90;;;;;;5011444;28;20549;-76
2022/03/27 03:51:50;;;;;;;43.87;24.60;;;0.80;99.90;;;;;;5011630;28;20037;-76
2022/03/27 03:54:15;;;;;;;45.93;24.10;;;0.80;99.90;;;;;;4993746;28;20102;-76
2022/03/27 03:56:41;;;;;;;50.13;25.63;;;0.80;99.90;;;;;;5011509;28;20098;-76
2022/03/27 03:59:06;;;;;;;50.53;25.27;;;0.70;99.90;;;;;;5004489;28;20026;-76
2022/03/27 04:01:32;;;;;;;51.00;25.83;;;0.80;99.90;;;;;;4991636;28;20023;-76
2022/03/27 04:03:57;;;;;;;52.20;25.10;;;0.70;99.90;;;;;;5000076;28;20498;-76
2022/03/27 04:06:23;;;;;;;49.47;25.83;;;0.70;99.90;;;;;;4994441;28;20111;-76
2022/03/27 04:08:49;;;;;;;52.67;24.40;;;0.70;99.90;;;;;;5011799;28;20036;-76
2022/03/27 04:11:17;;;;;;;52.50;24.83;;;0.60;99.90;;;;;;4994384;28;20037;-76
2022/03/27 04:13:46;;;;;;;51.27;24.87;;;0.60;99.90;;;;;;5011633;28;20037;-76
2022/03/27 04:16:12;;;;;;;48.07;24.30;;;0.60;99.90;;;;;;5011642;28;20432;-77
2022/03/27 04:18:38;;;;;;;47.27;24.43;;;0.60;99.90;;;;;;5010961;28;20018;-76
2022/03/27 04:21:04;;;;;;;53.97;24.27;;;0.60;99.90;;;;;;5010798;28;20375;-76
2022/03/27 04:23:30;;;;;;;48.07;25.60;;;0.60;99.90;;;;;;4993276;28;20061;-76
2022/03/27 04:25:56;;;;;;;45.87;24.03;;;0.50;99.90;;;;;;5010955;28;20092;-77
2022/03/27 04:28:21;;;;;;;40.90;22.70;;;0.50;99.90;;;;;;5010772;28;20476;-76
2022/03/27 04:30:47;;;;;;;43.13;22.20;;;0.50;99.90;;;;;;4992652;28;20038;-76
2022/03/27 04:33:12;;;;;;;48.63;23.27;;;0.40;99.90;;;;;;5010884;28;20034;-76
2022/03/27 04:35:38;;;;;;;42.73;23.37;;;0.40;99.90;;;;;;4992819;28;20026;-76
2022/03/27 04:38:04;;;;;;;44.70;23.70;;;0.40;99.90;;;;;;4992748;28;20522;-76
2022/03/27 04:40:30;;;;;;;49.37;23.53;;;0.40;99.90;;;;;;5010564;28;20084;-77
2022/03/27 04:42:55;;;;;;;47.10;23.33;;;0.30;99.90;;;;;;4992140;28;20466;-77
2022/03/27 04:45:21;;;;;;;42.90;23.47;;;0.30;99.90;;;;;;5010735;28;20065;-77
2022/03/27 04:47:46;;;;;;;45.17;24.17;;;0.30;99.90;;;;;;5010507;28;20724;-77
2022/03/27 04:50:12;;;;;;;41.83;22.43;;;0.30;99.90;;;;;;5010527;28;20026;-77
2022/03/27 04:52:38;;;;;;;43.17;23.93;;;0.30;99.90;;;;;;5010563;28;20022;-77
2022/03/27 04:55:05;;;;;;;43.50;22.13;;;0.20;99.90;;;;;;5010505;28;20028;-77
2022/03/27 04:57:39;;;;;;;47.83;23.53;;;0.20;99.90;;;;;;5008788;28;20030;-77
2022/03/27 05:00:10;;;;;;;43.63;22.93;;;0.20;99.90;;;;;;5001731;28;20030;-77
2022/03/27 05:02:36;;;;;;;42.73;22.93;;;0.20;99.90;;;;;;5010263;28;20442;-77
2022/03/27 05:05:04;;;;;;;43.23;22.53;;;0.10;99.90;;;;;;4992783;28;20064;-77
2022/03/27 05:07:29;;;;;;;44.80;23.00;;;0.10;99.90;;;;;;5010206;28;20121;-77
2022/03/27 05:09:55;;;;;;;46.63;23.63;;;0.10;99.90;;;;;;4992813;28;20109;-77
2022/03/27 05:12:20;;;;;;;40.67;22.30;;;0.10;99.90;;;;;;4992586;28;20088;-77
2022/03/27 05:14:46;;;;;;;38.80;21.27;;;0.10;99.90;;;;;;5010186;28;20085;-77
2022/03/27 05:17:11;;;;;;;39.47;21.83;;;0.20;99.90;;;;;;5010312;28;20511;-76
2022/03/27 05:19:37;;;;;;;42.73;22.83;;;0.20;99.90;;;;;;4989507;28;20077;-76
2022/03/27 05:22:03;;;;;;;39.37;21.43;;;0.20;99.90;;;;;;4990636;28;20380;-77
2022/03/27 05:24:28;;;;;;;46.50;22.80;;;0.20;99.90;;;;;;5002864;28;20045;-76
2022/03/27 05:26:56;;;;;;;41.53;20.30;;;0.20;99.90;;;;;;5009830;28;20109;-76
2022/03/27 05:29:22;;;;;;;38.93;21.23;;;0.20;99.90;;;;;;4992378;28;20116;-77
2022/03/27 05:31:47;;;;;;;39.53;21.97;;;0.20;99.90;;;;;;5010318;28;20101;-76
2022/03/27 05:34:13;;;;;;;43.83;20.63;;;0.30;99.90;;;;;;5010119;28;20116;-76
2022/03/27 05:36:39;;;;;;;47.73;22.20;;;0.30;99.90;;;;;;5009727;28;20386;-77
2022/03/27 05:39:04;;;;;;;42.43;22.53;;;0.30;99.90;;;;;;4988384;28;20069;-81
2022/03/27 05:41:30;;;;;;;40.43;21.77;;;0.30;99.90;;;;;;4999984;28;20387;-81
2022/03/27 05:43:56;;;;;;;36.13;20.93;;;0.40;99.90;;;;;;4990250;28;20052;-81
2022/03/27 05:46:21;;;;;;;39.47;22.83;;;0.40;99.90;;;;;;5006460;28;20057;-81
2022/03/27 05:48:47;;;;;;;41.57;22.03;;;0.50;99.90;;;;;;4991799;28;20084;-81
2022/03/27 05:51:13;;;;;;;43.77;21.83;;;0.60;99.90;;;;;;5008226;28;20029;-80
2022/03/27 05:53:39;;;;;;;38.73;21.00;;;0.60;99.90;;;;;;4997278;28;20470;-80
2022/03/27 05:56:05;;;;;;;39.57;21.80;;;0.70;99.90;;;;;;5005982;28;20097;-80
2022/03/27 05:58:31;;;;;;;42.77;22.60;;;0.80;99.90;;;;;;4994296;28;20037;-80
2022/03/27 06:00:56;;;;;;;42.10;21.90;;;0.90;99.90;;;;;;4994321;28;20026;-80
2022/03/27 06:03:22;;;;;;;41.97;22.00;;;0.90;99.90;;;;;;5011506;28;20111;-80
2022/03/27 06:05:49;;;;;;;40.17;22.07;;;1.00;99.90;;;;;;5010824;28;20026;-80
2022/03/27 06:08:15;;;;;;;42.73;22.67;;;1.10;99.90;;;;;;4991074;28;20084;-80
2022/03/27 06:10:41;;;;;;;44.03;21.67;;;1.20;99.90;;;;;;5011753;28;20033;-80
2022/03/27 06:13:09;;;;;;;42.33;23.10;;;1.30;99.90;;;;;;5008956;28;20029;-80
2022/03/27 06:15:35;;;;;;;35.93;21.53;;;1.30;99.90;;;;;;5008666;28;20034;-80
2022/03/27 06:18:01;;;;;;;44.83;22.63;;;1.40;99.90;;;;;;5012079;28;20037;-81
2022/03/27 06:20:29;;;;;;;37.27;22.53;;;1.50;99.90;;;;;;5011595;28;20053;-81
2022/03/27 06:22:55;;;;;;;40.87;23.07;;;1.60;99.90;;;;;;4993089;28;20052;-82
2022/03/27 06:25:23;;;;;;;38.17;22.13;;;1.70;99.90;;;;;;5012195;28;20021;-76
2022/03/27 06:27:49;;;;;;;48.53;23.60;;;1.80;99.90;;;;;;5009282;28;20088;-79
2022/03/27 06:30:19;;;;;;;42.70;22.63;;;1.80;99.90;;;;;;5013155;28;20022;-81
2022/03/27 06:32:46;;;;;;;36.93;21.40;;;1.90;99.90;;;;;;5014549;28;20093;-75
2022/03/27 06:35:12;;;;;;;37.33;21.70;;;2.10;99.90;;;;;;5014791;28;20023;-75
2022/03/27 06:37:39;;;;;;;38.00;22.50;;;2.20;99.90;;;;;;4994062;28;20022;-76
2022/03/27 06:40:06;;;;;;;35.83;22.60;;;2.30;99.90;;;;;;5012403;28;20028;-75
2022/03/27 06:42:32;;;;;;;39.50;20.97;;;2.40;99.90;;;;;;5012541;28;20018;-76
2022/03/27 06:44:58;;;;;;;39.13;23.37;;;2.60;99.90;;;;;;5011372;28;20113;-77
2022/03/27 06:47:25;;;;;;;38.70;21.83;;;2.80;99.90;;;;;;5011452;28;20022;-75
2022/03/27 06:49:51;;;;;;;49.63;24.53;;;3.00;99.90;;;;;;5009498;28;20117;-76
2022/03/27 06:52:17;;;;;;;39.73;23.57;;;3.30;99.90;;;;;;5004145;28;20042;-76
2022/03/27 06:54:44;;;;;;;37.80;22.23;;;3.40;99.90;;;;;;5002644;28;20053;-76
2022/03/27 06:57:09;;;;;;;44.47;23.73;;;3.50;99.90;;;;;;5004941;28;20052;-76
2022/03/27 07:05:06;;;;;;;43.50;23.92;;;3.90;99.90;;;;;;5001588;28;20048;-76
2022/03/27 07:07:32;;;;;;;45.23;25.00;;;4.10;99.90;;;;;;4989032;28;20093;-76
2022/03/27 07:09:57;;;;;;;45.20;23.90;;;4.30;99.90;;;;;;5011325;28;20040;-76
2022/03/27 07:12:24;;;;;;;41.00;24.13;;;4.80;99.90;;;;;;5012104;28;20025;-76
2022/03/27 07:14:51;;;;;;;41.10;23.90;;;5.20;99.90;;;;;;4994940;28;20026;-76
2022/03/27 07:17:17;;;;;;;39.97;24.00;;;5.50;99.90;;;;;;5012017;28;20053;-77
2022/03/27 07:19:44;;;;;;;43.93;25.83;;;5.60;99.90;;;;;;5012558;28;20022;-77
2022/03/27 07:22:10;;;;;;;42.50;24.27;;;5.60;99.90;;;;;;4995105;28;20056;-77
2022/03/27 07:24:35;;;;;;;43.37;26.13;;;5.70;99.90;;;;;;5012408;28;20092;-77
2022/03/27 07:27:02;;;;;;;42.63;24.77;;;5.80;99.90;;;;;;5011166;28;20093;-77
2022/03/27 07:29:30;;;;;;;42.70;25.70;;;5.90;99.90;;;;;;5012216;28;20084;-77
2022/03/27 07:31:56;;;;;;;47.10;27.60;;;6.00;99.90;;;;;;4995350;28;20727;-77
2022/03/27 07:34:22;;;;;;;45.17;26.17;;;6.10;99.90;;;;;;5008010;28;20018;-77
2022/03/27 07:36:47;;;;;;;45.40;26.23;;;6.30;99.90;;;;;;4984809;28;20034;-77
2022/03/27 07:39:13;;;;;;;48.13;28.27;;;6.50;99.90;;;;;;5001238;28;20019;-77
2022/03/27 07:41:39;;;;;;;51.67;28.83;;;6.70;99.90;;;;;;5008124;28;20030;-77
2022/03/27 07:44:05;;;;;;;42.87;26.10;;;6.70;99.90;;;;;;5014555;28;20022;-76
2022/03/27 07:46:31;;;;;;;51.93;26.73;;;6.80;99.90;;;;;;5013559;28;20026;-77
2022/03/27 07:48:56;;;;;;;44.53;26.73;;;6.90;99.90;;;;;;5009703;28;20026;-77
2022/03/27 07:51:22;;;;;;;45.43;27.83;;;7.10;99.90;;;;;;5014038;28;20069;-80
2022/03/27 07:53:48;;;;;;;51.67;27.80;;;7.30;99.90;;;;;;5014633;28;20053;-77
2022/03/27 07:56:13;;;;;;;45.37;25.07;;;7.60;99.90;;;;;;5014483;28;20403;-77
2022/03/27 07:58:39;;;;;;;46.00;26.10;;;7.80;99.90;;;;;;5015127;28;20018;-77
2022/03/27 08:01:05;;;;;;;44.03;25.87;;;8.00;99.90;;;;;;5014296;28;20021;-77
2022/03/27 08:03:33;;;;;;;46.57;26.27;;;8.40;99.90;;;;;;5014205;28;20129;-77
2022/03/27 08:06:00;;;;;;;45.30;26.30;;;8.50;99.90;;;;;;5014210;28;20449;-77
2022/03/27 08:08:26;;;;;;;47.77;26.83;;;8.80;99.90;;;;;;5014142;28;20026;-75
2022/03/27 08:10:51;;;;;;;40.17;23.57;;;8.90;99.90;;;;;;5014084;28;20105;-76
2022/03/27 08:13:17;;;;;;;44.63;25.13;;;9.20;99.90;;;;;;5014216;28;20030;-76
2022/03/27 08:15:43;;;;;;;41.57;23.93;;;9.40;99.90;;;;;;5014041;28;20018;-76
2022/03/27 08:18:13;;;;;;;39.87;23.67;;;9.40;99.90;;;;;;4995891;28;20018;-76
2022/03/27 08:20:40;;;;;;;40.20;23.27;;;9.50;99.90;;;;;;5013948;28;20102;-75
2022/03/27 08:23:07;;;;;;;42.60;24.17;;;9.60;99.90;;;;;;5014084;28;20014;-75
2022/03/27 08:28:19;;;;;;;39.40;21.83;;;10.00;99.90;;;;;;5014183;28;20029;-76
2022/03/27 08:30:45;;;;;;;40.70;22.43;;;10.20;99.90;;;;;;5013878;28;20097;-76
2022/03/27 08:33:12;;;;;;;34.33;20.90;;;10.40;99.90;;;;;;5013647;28;20025;-76
2022/03/27 08:35:41;;;;;;;34.87;20.67;;;10.40;99.90;;;;;;5013701;28;20022;-75
2022/03/27 08:38:10;;;;;;;37.17;21.70;;;10.60;99.90;;;;;;5013554;28;20113;-75
2022/03/27 08:40:38;;;;;;;37.93;21.73;;;10.80;99.90;;;;;;5013678;28;20156;-76
2022/03/27 08:43:09;;;;;;;35.07;20.93;;;11.10;99.90;;;;;;5002582;28;20410;-75
2022/03/27 08:45:34;;;;;;;35.67;20.57;;;11.10;99.90;;;;;;4992835;28;20379;-75
2022/03/27 08:48:00;;;;;;;33.67;20.53;;;11.30;99.90;;;;;;4993901;28;20022;-75
2022/03/27 08:50:34;;;;;;;35.80;20.77;;;11.60;99.90;;;;;;5007006;28;20044;-76
2022/03/27 08:53:08;;;;;;;34.73;20.20;;;11.80;99.90;;;;;;4995591;28;20454;-76
2022/03/27 08:55:57;;;;;;;36.40;19.73;;;11.90;99.90;;;;;;4995477;28;20018;-75
2022/03/27 08:58:39;;;;;;;32.80;20.38;;;12.10;99.90;;;;;;5013269;28;20036;-75
2022/03/27 09:01:06;;;;;;;36.45;18.95;;;12.40;99.30;;;;;;4995437;28;20022;-76
2022/03/27 09:03:33;;;;;;;32.22;20.02;;;12.70;97.10;;;;;;5012299;28;20042;-76
2022/03/27 09:06:01;;;;;;;34.05;19.45;;;12.80;97.40;;;;;;5010532;28;20115;-76
2022/03/27 09:08:29;;;;;;;30.85;19.02;;;13.10;96.10;;;;;;5011796;28;20524;-80
2022/03/27 09:10:58;;;;;;;33.42;20.48;;;13.30;95.70;;;;;;5010156;28;20022;-81
2022/03/27 09:13:25;;;;;;;33.28;19.52;;;13.50;95.50;;;;;;5012887;28;20048;-76
2022/03/27 09:15:59;;;;;;;34.28;20.38;;;13.90;94.20;;;;;;5011930;28;20380;-78
2022/03/27 09:18:25;;;;;;;31.75;20.10;;;13.90;93.70;;;;;;5010635;28;20503;-77
2022/03/27 09:20:53;;;;;;;30.10;20.08;;;14.30;92.30;;;;;;5011206;28;20041;-76
2022/03/27 09:23:30;;;;;;;29.92;18.77;;;14.70;91.10;;;;;;5013063;28;20116;-76
2022/03/27 09:26:01;;;;;;;32.58;19.88;;;14.90;89.40;;;;;;4994558;28;20120;-76
2022/03/27 09:28:29;;;;;;;32.53;20.02;;;14.90;87.00;;;;;;4997475;28;20463;-78
2022/03/27 09:30:56;;;;;;;32.08;19.45;;;15.10;89.40;;;;;;5015550;28;20093;-77
2022/03/27 09:33:32;;;;;;;34.50;20.60;;;15.40;87.30;;;;;;5016771;28;20068;-76
2022/03/27 09:36:12;;;;;;;35.08;20.75;;;15.80;83.90;;;;;;4999267;28;20034;-76
2022/03/27 09:38:38;;;;;;;32.17;20.23;;;15.70;83.30;;;;;;4999300;28;20026;-77
2022/03/27 09:41:05;;;;;;;32.67;19.95;;;16.10;82.60;;;;;;5016764;28;20120;-77
2022/03/27 09:43:31;;;;;;;34.40;20.48;;;16.50;80.40;;;;;;5016806;28;20076;-77
2022/03/27 09:45:59;;;;;;;31.75;20.00;;;16.70;79.80;;;;;;5016831;28;20034;-77
2022/03/27 09:48:28;;;;;;;33.63;20.52;;;16.80;79.30;;;;;;5011457;28;20064;-77
2022/03/27 09:50:58;;;;;;;36.55;21.15;;;16.80;77.50;;;;;;4989502;28;20026;-81
2022/03/27 09:53:29;;;;;;;31.73;20.23;;;17.00;77.20;;;;;;4996975;28;20042;-81
2022/03/27 09:56:00;;;;;;;31.27;21.23;;;17.00;77.40;;;;;;5011145;28;20087;-81
2022/03/27 09:58:40;;;;;;;31.23;19.50;;;16.80;75.90;;;;;;5003431;28;20031;-81
2022/03/27 10:01:08;;;;;;;31.02;20.63;;;17.10;74.80;;;;;;5010605;28;20034;-81
2022/03/27 10:03:34;;;;;;;28.42;20.27;;;17.40;75.00;;;;;;5013405;28;20128;-81
2022/03/27 10:06:02;;;;;;;35.65;20.90;;;17.30;73.60;;;;;;5013049;28;20048;-81
2022/03/27 10:08:28;;;;;;;31.60;21.20;;;17.50;75.20;;;;;;5013352;28;20026;-81
2022/03/27 10:10:55;;;;;;;30.90;19.50;;;17.90;70.60;;;;;;4995655;28;20367;-81
2022/03/27 10:13:23;;;;;;;34.10;20.08;;;18.20;70.00;;;;;;4995691;28;20037;-81
2022/03/27 10:15:54;;;;;;;31.88;20.38;;;18.30;69.90;;;;;;5013080;28;20108;-81
2022/03/27 10:18:21;;;;;;;34.88;20.75;;;18.70;68.00;;;;;;4995405;28;20052;-81
2022/03/27 10:20:54;;;;;;;33.03;20.75;;;18.60;68.80;;;;;;5012977;28;20042;-81
2022/03/27 10:23:24;;;;;;;30.45;20.10;;;18.50;68.20;;;;;;5013008;28;20026;-81
2022/03/27 10:25:53;;;;;;;31.30;21.77;;;18.70;66.10;;;;;;4995340;28;20122;-81
2022/03/27 10:28:20;;;;;;;31.20;19.88;;;19.10;65.60;;;;;;5013053;28;20049;-81
2022/03/27 10:30:50;;;;;;;32.42;21.30;;;19.10;65.90;;;;;;5014598;28;20505;-82
2022/03/27 10:33:15;;;;;;;31.00;20.52;;;19.20;64.40;;;;;;5013479;28;20042;-83
2022/03/27 10:36:00;;;;;;;32.15;19.83;;;19.20;65.10;;;;;;4995513;28;20034;-73
2022/03/27 10:38:56;;;;;;;33.92;20.58;;;19.30;65.50;;;;;;5013447;28;20409;-72
2022/03/27 10:41:27;;;;;;;32.40;20.20;;;19.40;64.10;;;;;;5013017;28;20032;-72
2022/03/27 10:44:13;;;;;;;36.00;20.42;;;19.20;64.70;;;;;;5013225;28;20117;-72
2022/03/27 10:46:38;;;;;;;27.77;17.45;;;19.10;63.90;;;;;;4995101;28;20055;-72
2022/03/27 10:49:16;;;;;;;30.85;20.00;;;19.00;64.60;;;;;;5013218;28;20038;-72
2022/03/27 10:51:44;;;;;;;31.48;20.35;;;19.60;63.40;;;;;;5012745;28;20096;-72
2022/03/27 10:54:18;;;;;;;35.22;21.23;;;19.60;63.00;;;;;;5012147;28;20030;-72
2022/03/27 10:57:02;;;;;;;31.02;20.30;;;19.90;62.70;;;;;;5009915;28;20029;-72
2022/03/27 10:59:40;;;;;;;33.83;20.95;;;20.00;62.70;;;;;;5005781;28;20104;-71
2022/03/27 11:02:06;;;;;;;32.00;20.85;;;19.90;62.80;;;;;;5011302;28;20179;-72
2022/03/27 11:04:41;;;;;;;31.63;21.00;;;19.90;61.20;;;;;;5011053;28;20167;-71
2022/03/27 11:07:15;;;;;;;31.58;19.73;;;19.80;61.40;;;;;;5010198;28;20021;-71
2022/03/27 11:09:44;;;;;;;40.78;20.92;;;20.00;60.00;;;;;;5008122;28;20075;-72
2022/03/27 11:12:25;;;;;;;31.83;19.60;;;19.90;60.50;;;;;;5012164;28;20030;-73
2022/03/27 11:14:54;;;;;;;33.88;19.98;;;19.70;60.90;;;;;;5011791;28;20033;-72
2022/03/27 11:17:40;;;;;;;31.45;19.92;;;19.80;62.20;;;;;;5011373;28;20077;-71
2022/03/27 11:20:21;;;;;;;27.75;19.20;;;20.10;59.40;;;;;;5002685;28;20120;-71
2022/03/27 11:22:51;;;;;;;33.88;20.88;;;20.30;58.20;;;;;;5011704;28;20056;-72
2022/03/27 11:25:23;;;;;;;30.33;19.73;;;20.20;58.40;;;;;;5011572;28;20087;-72
2022/03/27 11:28:05;;;;;;;26.27;17.80;;;20.40;57.60;;;;;;5006403;28;20451;-72
2022/03/27 11:30:32;;;;;;;26.92;17.50;;;20.60;56.70;;;;;;4998879;28;20018;-78
2022/03/27 11:33:13;;;;;;;25.58;18.20;;;20.60;55.40;;;;;;4992107;28;20423;-72
2022/03/27 11:36:04;;;;;;;31.55;20.13;;;20.60;54.50;;;;;;4992836;28;20022;-80
2022/03/27 11:38:52;;;;;;;27.08;18.30;;;20.40;56.00;;;;;;4992511;28;20025;-80
2022/03/27 11:41:30;;;;;;;25.30;17.98;;;20.70;54.40;;;;;;4992728;28;20380;-80
2022/03/27 11:44:16;;;;;;;24.35;17.08;;;20.80;52.20;;;;;;4991758;28;20033;-81
2022/03/27 11:46:45;;;;;;;24.42;16.45;;;20.90;52.40;;;;;;4992529;28;20061;-80
2022/03/27 11:49:13;;;;;;;31.05;17.52;;;21.00;52.50;;;;;;5009342;28;20875;-80
2022/03/27 11:51:39;;;;;;;26.88;17.45;;;21.10;52.50;;;;;;4993945;28;20041;-80
2022/03/27 11:54:22;;;;;;;26.70;18.30;;;21.20;52.50;;;;;;5010245;28;20034;-81
2022/03/27 11:56:55;;;;;;;26.75;17.25;;;21.20;53.00;;;;;;5006782;28;20167;-76
2022/03/27 11:59:22;;;;;;;28.92;16.38;;;21.40;52.60;;;;;;5005507;28;20034;-80
2022/03/27 12:01:55;;;;;;;31.60;25.73;;;21.50;52.60;;;;;;5007327;28;20158;-80
2022/03/27 12:04:21;;;;;;;27.10;17.75;;;21.30;53.50;;;;;;4998035;28;20038;-76
2022/03/27 12:06:53;;;;;;;25.23;17.55;;;21.50;52.00;;;;;;5006832;28;20038;-77
2022/03/27 12:09:31;;;;;;;25.17;16.92;;;21.40;51.80;;;;;;5005150;28;20041;-76
2022/03/27 12:12:09;;;;;;;22.88;16.75;;;21.50;52.00;;;;;;4995134;28;20065;-76
2022/03/27 12:15:00;;;;;;;25.08;17.17;;;21.30;51.60;;;;;;4995633;28;20030;-76
2022/03/27 12:17:31;;;;;;;26.77;17.55;;;21.50;50.70;;;;;;4996021;28;20107;-75
2022/03/27 12:20:06;;;;;;;27.75;17.40;;;21.70;51.10;;;;;;5013140;28;20018;-75
2022/03/27 12:22:49;;;;;;;30.20;18.38;;;21.60;51.00;;;;;;5013027;28;20083;-75
2022/03/27 12:25:14;;;;;;;26.55;18.20;;;21.60;51.50;;;;;;4997671;28;20049;-76
2022/03/27 12:30:36;;;;;;;26.40;16.20;;;21.70;51.00;;;;;;4993570;28;20084;-76
2022/03/27 12:33:03;;;;;;;23.88;16.95;;;21.90;50.10;;;;;;4999619;28;20025;-76
2022/03/27 12:35:30;;;;;;;25.50;17.08;;;22.00;48.90;;;;;;5005703;28;20076;-76
2022/03/27 12:37:56;;;;;;;29.80;18.80;;;21.60;50.60;;;;;;5012932;28;20072;-77
2022/03/27 12:40:24;;;;;;;24.83;17.52;;;21.40;51.40;;;;;;5010522;28;20025;-79
2022/03/27 12:42:51;;;;;;;27.17;17.98;;;21.80;50.70;;;;;;5008345;28;20022;-77
2022/03/27 12:45:33;;;;;;;26.80;18.10;;;21.80;50.00;;;;;;5008096;28;20605;-78
2022/03/27 12:48:20;;;;;;;30.30;18.13;;;21.90;50.50;;;;;;5009332;28;20080;-76
2022/03/27 12:50:57;;;;;;;28.05;18.02;;;21.80;50.70;;;;;;5011542;28;20029;-76